sensor_id;sensor_type;location;lat;lon;timestamp;P1;durP1;ratioP1;P2;durP2;ratioP2
11504;SDS011;5809;53.262;10.408;2023-10-13T00:02:00;18.50;;;7.45;;
11504;SDS011;5809;53.262;10.408;2023-10-13T00:04:30;15.00;;;6.75;;
11504;SDS011;5809;53.262;10.408;2023-10-13T00:06:58;16.40;;;7.25;;
11504;SDS011;5809;53.262;10.408;2023-10-13T00:09:27;15.70;;;6.97;;
11504;SDS011;5809;53.262;10.408;2023-10-13T00:11:57;16.95;;;7.07;;
11504;SDS011;5809;53.262;10.408;2023-10-13T00:14:26;17.05;;;7.55;;
11504;SDS011;5809;53.262;10.408;2023-10-13T00:16:58;13.02;;;7.00;;
11504;SDS011;5809;53.262;10.408;2023-10-13T00:19:30;17.92;;;6.82;;
11504;SDS011;5809;53.262;10.408;2023-10-13T00:22:04;14.82;;;6.55;;
11504;SDS011;5809;53.262;10.408;2023-10-13T00:24:35;16.60;;;6.97;;
11504;SDS011;5809;53.262;10.408;2023-10-13T00:27:08;12.02;;;7.18;;
11504;SDS011;5809;53.262;10.408;2023-10-13T00:29:50;18.67;;;7.60;;
11504;SDS011;5809;53.262;10.408;2023-10-13T00:32:29;18.05;;;7.82;;
11504;SDS011;5809;53.262;10.408;2023-10-13T00:35:02;15.43;;;8.05;;
11504;SDS011;5809;53.262;10.408;2023-10-13T00:37:31;17.98;;;8.15;;
11504;SDS011;5809;53.262;10.408;2023-10-13T00:40:06;15.73;;;7.38;;
11504;SDS011;5809;53.262;10.408;2023-10-13T00:42:44;19.13;;;8.55;;
11504;SDS011;5809;53.262;10.408;2023-10-13T00:45:17;15.18;;;7.88;;
11504;SDS011;5809;53.262;10.408;2023-10-13T00:47:43;19.80;;;9.38;;
11504;SDS011;5809;53.262;10.408;2023-10-13T00:50:14;16.88;;;8.57;;
11504;SDS011;5809;53.262;10.408;2023-10-13T00:52:43;18.65;;;9.27;;
11504;SDS011;5809;53.262;10.408;2023-10-13T00:55:12;25.35;;;9.43;;
11504;SDS011;5809;53.262;10.408;2023-10-13T00:57:42;22.50;;;10.07;;
11504;SDS011;5809;53.262;10.408;2023-10-13T01:00:08;24.25;;;10.55;;
11504;SDS011;5809;53.262;10.408;2023-10-13T01:02:45;21.00;;;9.38;;
11504;SDS011;5809;53.262;10.408;2023-10-13T01:05:19;20.85;;;10.27;;
11504;SDS011;5809;53.262;10.408;2023-10-13T01:07:47;23.58;;;10.15;;
11504;SDS011;5809;53.262;10.408;2023-10-13T01:10:17;27.20;;;10.48;;
11504;SDS011;5809;53.262;10.408;2023-10-13T01:12:44;20.25;;;9.57;;
11504;SDS011;5809;53.262;10.408;2023-10-13T01:15:11;19.98;;;10.27;;
11504;SDS011;5809;53.262;10.408;2023-10-13T01:17:42;22.70;;;10.27;;
11504;SDS011;5809;53.262;10.408;2023-10-13T01:20:12;21.88;;;10.77;;
11504;SDS011;5809;53.262;10.408;2023-10-13T01:22:45;19.92;;;10.75;;
11504;SDS011;5809;53.262;10.408;2023-10-13T01:25:21;20.23;;;10.63;;
11504;SDS011;5809;53.262;10.408;2023-10-13T01:27:51;21.45;;;10.93;;
11504;SDS011;5809;53.262;10.408;2023-10-13T01:30:17;23.38;;;11.98;;
11504;SDS011;5809;53.262;10.408;2023-10-13T01:32:49;20.13;;;11.15;;
11504;SDS011;5809;53.262;10.408;2023-10-13T01:35:16;19.90;;;11.07;;
11504;SDS011;5809;53.262;10.408;2023-10-13T01:37:50;20.27;;;11.18;;
11504;SDS011;5809;53.262;10.408;2023-10-13T01:40:16;17.17;;;10.38;;
11504;SDS011;5809;53.262;10.408;2023-10-13T01:42:45;25.02;;;11.13;;
11504;SDS011;5809;53.262;10.408;2023-10-13T01:45:11;22.70;;;11.35;;
11504;SDS011;5809;53.262;10.408;2023-10-13T01:47:39;21.33;;;11.43;;
11504;SDS011;5809;53.262;10.408;2023-10-13T01:50:05;26.60;;;12.20;;
11504;SDS011;5809;53.262;10.408;2023-10-13T01:52:40;19.73;;;11.75;;
11504;SDS011;5809;53.262;10.408;2023-10-13T01:55:07;23.52;;;12.32;;
11504;SDS011;5809;53.262;10.408;2023-10-13T01:57:36;25.90;;;12.68;;
11504;SDS011;5809;53.262;10.408;2023-10-13T02:00:04;22.08;;;12.63;;
11504;SDS011;5809;53.262;10.408;2023-10-13T02:02:43;22.75;;;12.52;;
11504;SDS011;5809;53.262;10.408;2023-10-13T02:05:10;23.73;;;12.95;;
11504;SDS011;5809;53.262;10.408;2023-10-13T02:07:41;33.47;;;13.60;;
11504;SDS011;5809;53.262;10.408;2023-10-13T02:10:10;20.58;;;12.55;;
11504;SDS011;5809;53.262;10.408;2023-10-13T02:12:37;25.58;;;13.15;;
11504;SDS011;5809;53.262;10.408;2023-10-13T02:15:09;31.35;;;14.65;;
11504;SDS011;5809;53.262;10.408;2023-10-13T02:17:38;27.38;;;14.68;;
11504;SDS011;5809;53.262;10.408;2023-10-13T02:20:08;26.08;;;15.27;;
11504;SDS011;5809;53.262;10.408;2023-10-13T02:22:39;31.60;;;16.05;;
11504;SDS011;5809;53.262;10.408;2023-10-13T02:25:14;31.35;;;16.10;;
11504;SDS011;5809;53.262;10.408;2023-10-13T02:27:59;30.92;;;16.23;;
11504;SDS011;5809;53.262;10.408;2023-10-13T02:30:27;26.95;;;14.70;;
11504;SDS011;5809;53.262;10.408;2023-10-13T02:32:54;30.67;;;14.93;;
11504;SDS011;5809;53.262;10.408;2023-10-13T02:35:20;28.48;;;16.40;;
11504;SDS011;5809;53.262;10.408;2023-10-13T02:37:55;24.20;;;14.70;;
11504;SDS011;5809;53.262;10.408;2023-10-13T02:40:23;23.17;;;13.63;;
11504;SDS011;5809;53.262;10.408;2023-10-13T02:42:50;22.88;;;14.02;;
11504;SDS011;5809;53.262;10.408;2023-10-13T02:45:16;28.77;;;15.52;;
11504;SDS011;5809;53.262;10.408;2023-10-13T02:47:48;25.20;;;14.80;;
11504;SDS011;5809;53.262;10.408;2023-10-13T02:50:34;30.95;;;15.38;;
11504;SDS011;5809;53.262;10.408;2023-10-13T02:53:03;28.00;;;15.98;;
11504;SDS011;5809;53.262;10.408;2023-10-13T02:55:30;25.58;;;15.05;;
11504;SDS011;5809;53.262;10.408;2023-10-13T02:57:57;24.80;;;15.57;;
11504;SDS011;5809;53.262;10.408;2023-10-13T03:00:24;25.95;;;15.50;;
11504;SDS011;5809;53.262;10.408;2023-10-13T03:02:58;28.77;;;15.13;;
11504;SDS011;5809;53.262;10.408;2023-10-13T03:05:24;23.50;;;14.70;;
11504;SDS011;5809;53.262;10.408;2023-10-13T03:07:55;23.63;;;14.40;;
11504;SDS011;5809;53.262;10.408;2023-10-13T03:10:23;27.98;;;15.63;;
11504;SDS011;5809;53.262;10.408;2023-10-13T03:12:54;25.65;;;14.52;;
11504;SDS011;5809;53.262;10.408;2023-10-13T03:15:20;23.52;;;15.55;;
11504;SDS011;5809;53.262;10.408;2023-10-13T03:17:54;30.65;;;16.17;;
11504;SDS011;5809;53.262;10.408;2023-10-13T03:20:25;27.08;;;15.38;;
11504;SDS011;5809;53.262;10.408;2023-10-13T03:22:56;27.02;;;16.30;;
11504;SDS011;5809;53.262;10.408;2023-10-13T03:25:24;27.65;;;16.25;;
11504;SDS011;5809;53.262;10.408;2023-10-13T03:27:54;34.33;;;17.02;;
11504;SDS011;5809;53.262;10.408;2023-10-13T03:30:30;27.48;;;16.33;;
11504;SDS011;5809;53.262;10.408;2023-10-13T03:33:04;33.53;;;17.55;;
11504;SDS011;5809;53.262;10.408;2023-10-13T03:35:38;28.92;;;16.92;;
11504;SDS011;5809;53.262;10.408;2023-10-13T03:38:06;37.03;;;18.40;;
11504;SDS011;5809;53.262;10.408;2023-10-13T03:40:46;34.53;;;18.70;;
11504;SDS011;5809;53.262;10.408;2023-10-13T03:43:31;35.97;;;18.85;;
11504;SDS011;5809;53.262;10.408;2023-10-13T03:46:09;37.45;;;19.38;;
11504;SDS011;5809;53.262;10.408;2023-10-13T03:48:36;39.42;;;19.73;;
11504;SDS011;5809;53.262;10.408;2023-10-13T03:51:18;44.83;;;21.38;;
11504;SDS011;5809;53.262;10.408;2023-10-13T03:53:45;42.53;;;21.85;;
11504;SDS011;5809;53.262;10.408;2023-10-13T03:56:19;42.83;;;21.15;;
11504;SDS011;5809;53.262;10.408;2023-10-13T03:58:53;42.83;;;21.13;;
11504;SDS011;5809;53.262;10.408;2023-10-13T04:01:23;39.85;;;20.83;;
11504;SDS011;5809;53.262;10.408;2023-10-13T04:03:57;42.00;;;21.23;;
11504;SDS011;5809;53.262;10.408;2023-10-13T04:06:30;46.60;;;22.00;;
11504;SDS011;5809;53.262;10.408;2023-10-13T04:09:14;43.13;;;21.88;;
11504;SDS011;5809;53.262;10.408;2023-10-13T04:11:58;50.95;;;23.63;;
11504;SDS011;5809;53.262;10.408;2023-10-13T04:15:12;46.42;;;24.05;;
11504;SDS011;5809;53.262;10.408;2023-10-13T04:17:44;51.08;;;25.38;;
11504;SDS011;5809;53.262;10.408;2023-10-13T04:20:13;48.20;;;24.70;;
11504;SDS011;5809;53.262;10.408;2023-10-13T04:22:54;45.78;;;26.00;;
11504;SDS011;5809;53.262;10.408;2023-10-13T04:25:38;52.97;;;26.35;;
11504;SDS011;5809;53.262;10.408;2023-10-13T04:28:17;52.60;;;27.30;;
11504;SDS011;5809;53.262;10.408;2023-10-13T04:30:59;63.88;;;30.98;;
11504;SDS011;5809;53.262;10.408;2023-10-13T04:33:37;66.97;;;31.98;;
11504;SDS011;5809;53.262;10.408;2023-10-13T04:36:17;65.85;;;32.47;;
11504;SDS011;5809;53.262;10.408;2023-10-13T04:39:03;78.50;;;34.92;;
11504;SDS011;5809;53.262;10.408;2023-10-13T04:41:35;68.35;;;33.70;;
11504;SDS011;5809;53.262;10.408;2023-10-13T04:44:04;71.65;;;35.78;;
11504;SDS011;5809;53.262;10.408;2023-10-13T04:46:46;68.75;;;35.97;;
11504;SDS011;5809;53.262;10.408;2023-10-13T04:49:27;75.70;;;34.97;;
11504;SDS011;5809;53.262;10.408;2023-10-13T04:52:01;65.00;;;34.88;;
11504;SDS011;5809;53.262;10.408;2023-10-13T04:54:39;67.32;;;34.97;;
11504;SDS011;5809;53.262;10.408;2023-10-13T04:57:10;71.32;;;35.80;;
11504;SDS011;5809;53.262;10.408;2023-10-13T04:59:50;73.13;;;36.42;;
11504;SDS011;5809;53.262;10.408;2023-10-13T05:02:35;78.47;;;37.33;;
11504;SDS011;5809;53.262;10.408;2023-10-13T05:05:23;75.95;;;36.10;;
11504;SDS011;5809;53.262;10.408;2023-10-13T05:08:08;70.85;;;37.08;;
11504;SDS011;5809;53.262;10.408;2023-10-13T05:10:53;71.03;;;36.70;;
11504;SDS011;5809;53.262;10.408;2023-10-13T05:13:38;71.75;;;37.75;;
11504;SDS011;5809;53.262;10.408;2023-10-13T05:16:22;73.57;;;39.50;;
11504;SDS011;5809;53.262;10.408;2023-10-13T05:19:06;69.78;;;37.30;;
11504;SDS011;5809;53.262;10.408;2023-10-13T05:21:50;66.53;;;37.90;;
11504;SDS011;5809;53.262;10.408;2023-10-13T05:24:34;73.43;;;39.92;;
11504;SDS011;5809;53.262;10.408;2023-10-13T05:27:20;73.55;;;39.50;;
11504;SDS011;5809;53.262;10.408;2023-10-13T05:30:05;73.75;;;40.30;;
11504;SDS011;5809;53.262;10.408;2023-10-13T05:32:50;72.18;;;40.88;;
11504;SDS011;5809;53.262;10.408;2023-10-13T05:35:34;71.22;;;40.05;;
11504;SDS011;5809;53.262;10.408;2023-10-13T05:38:18;70.38;;;39.50;;
11504;SDS011;5809;53.262;10.408;2023-10-13T05:41:03;66.07;;;40.08;;
11504;SDS011;5809;53.262;10.408;2023-10-13T05:43:50;74.10;;;41.25;;
11504;SDS011;5809;53.262;10.408;2023-10-13T05:46:34;68.10;;;41.33;;
11504;SDS011;5809;53.262;10.408;2023-10-13T05:49:15;70.00;;;41.53;;
11504;SDS011;5809;53.262;10.408;2023-10-13T05:52:05;70.20;;;40.40;;
11504;SDS011;5809;53.262;10.408;2023-10-13T05:55:05;68.10;;;40.97;;
11504;SDS011;5809;53.262;10.408;2023-10-13T05:57:49;69.05;;;40.72;;
11504;SDS011;5809;53.262;10.408;2023-10-13T06:00:39;70.88;;;41.13;;
11504;SDS011;5809;53.262;10.408;2023-10-13T06:03:24;71.10;;;40.35;;
11504;SDS011;5809;53.262;10.408;2023-10-13T06:06:09;64.20;;;39.97;;
11504;SDS011;5809;53.262;10.408;2023-10-13T06:08:53;60.50;;;38.60;;
11504;SDS011;5809;53.262;10.408;2023-10-13T06:11:38;61.05;;;37.40;;
11504;SDS011;5809;53.262;10.408;2023-10-13T06:14:22;62.80;;;40.33;;
11504;SDS011;5809;53.262;10.408;2023-10-13T06:17:08;62.58;;;39.53;;
11504;SDS011;5809;53.262;10.408;2023-10-13T06:19:53;66.80;;;38.40;;
11504;SDS011;5809;53.262;10.408;2023-10-13T06:22:37;64.55;;;39.15;;
11504;SDS011;5809;53.262;10.408;2023-10-13T06:25:21;58.80;;;37.15;;
11504;SDS011;5809;53.262;10.408;2023-10-13T06:28:06;57.08;;;38.20;;
11504;SDS011;5809;53.262;10.408;2023-10-13T06:30:55;56.67;;;36.78;;
11504;SDS011;5809;53.262;10.408;2023-10-13T06:33:24;61.17;;;37.50;;
11504;SDS011;5809;53.262;10.408;2023-10-13T06:35:54;60.72;;;38.40;;
11504;SDS011;5809;53.262;10.408;2023-10-13T06:38:22;55.47;;;36.33;;
11504;SDS011;5809;53.262;10.408;2023-10-13T06:40:49;58.45;;;36.28;;
11504;SDS011;5809;53.262;10.408;2023-10-13T06:43:17;53.50;;;37.35;;
11504;SDS011;5809;53.262;10.408;2023-10-13T06:45:47;55.20;;;36.67;;
11504;SDS011;5809;53.262;10.408;2023-10-13T06:48:23;51.72;;;36.53;;
11504;SDS011;5809;53.262;10.408;2023-10-13T06:50:50;55.85;;;35.63;;
11504;SDS011;5809;53.262;10.408;2023-10-13T06:53:20;65.70;;;37.83;;
11504;SDS011;5809;53.262;10.408;2023-10-13T06:55:49;63.78;;;36.67;;
11504;SDS011;5809;53.262;10.408;2023-10-13T06:58:17;48.67;;;32.55;;
11504;SDS011;5809;53.262;10.408;2023-10-13T07:00:49;54.05;;;32.72;;
11504;SDS011;5809;53.262;10.408;2023-10-13T07:03:20;48.30;;;32.95;;
11504;SDS011;5809;53.262;10.408;2023-10-13T07:05:49;49.55;;;31.98;;
11504;SDS011;5809;53.262;10.408;2023-10-13T07:08:16;47.65;;;32.78;;
11504;SDS011;5809;53.262;10.408;2023-10-13T07:10:48;46.15;;;31.33;;
11504;SDS011;5809;53.262;10.408;2023-10-13T07:13:26;43.17;;;29.63;;
11504;SDS011;5809;53.262;10.408;2023-10-13T07:15:54;40.45;;;29.40;;
11504;SDS011;5809;53.262;10.408;2023-10-13T07:18:25;40.92;;;29.98;;
11504;SDS011;5809;53.262;10.408;2023-10-13T07:21:02;36.55;;;26.63;;
11504;SDS011;5809;53.262;10.408;2023-10-13T07:23:35;39.40;;;26.85;;
11504;SDS011;5809;53.262;10.408;2023-10-13T07:26:02;37.63;;;27.23;;
11504;SDS011;5809;53.262;10.408;2023-10-13T07:28:33;36.33;;;26.38;;
11504;SDS011;5809;53.262;10.408;2023-10-13T07:31:01;32.95;;;26.05;;
11504;SDS011;5809;53.262;10.408;2023-10-13T07:33:41;35.15;;;26.08;;
11504;SDS011;5809;53.262;10.408;2023-10-13T07:36:09;34.97;;;25.63;;
11504;SDS011;5809;53.262;10.408;2023-10-13T07:38:41;40.58;;;26.27;;
11504;SDS011;5809;53.262;10.408;2023-10-13T07:41:09;32.85;;;25.40;;
11504;SDS011;5809;53.262;10.408;2023-10-13T07:43:40;36.45;;;25.95;;
11504;SDS011;5809;53.262;10.408;2023-10-13T07:46:07;33.88;;;25.05;;
11504;SDS011;5809;53.262;10.408;2023-10-13T07:48:35;29.65;;;24.02;;
11504;SDS011;5809;53.262;10.408;2023-10-13T07:51:03;29.80;;;24.02;;
11504;SDS011;5809;53.262;10.408;2023-10-13T07:53:36;26.83;;;22.02;;
11504;SDS011;5809;53.262;10.408;2023-10-13T07:56:05;33.22;;;22.63;;
11504;SDS011;5809;53.262;10.408;2023-10-13T07:58:33;31.85;;;23.10;;
11504;SDS011;5809;53.262;10.408;2023-10-13T08:01:01;27.17;;;21.98;;
11504;SDS011;5809;53.262;10.408;2023-10-13T08:03:34;27.40;;;20.67;;
11504;SDS011;5809;53.262;10.408;2023-10-13T08:06:08;27.00;;;20.60;;
11504;SDS011;5809;53.262;10.408;2023-10-13T08:08:46;29.83;;;20.17;;
11504;SDS011;5809;53.262;10.408;2023-10-13T08:11:18;27.75;;;21.48;;
11504;SDS011;5809;53.262;10.408;2023-10-13T08:13:56;28.50;;;21.55;;
11504;SDS011;5809;53.262;10.408;2023-10-13T08:16:24;33.22;;;22.65;;
11504;SDS011;5809;53.262;10.408;2023-10-13T08:19:10;26.17;;;21.20;;
11504;SDS011;5809;53.262;10.408;2023-10-13T08:21:38;28.15;;;20.40;;
11504;SDS011;5809;53.262;10.408;2023-10-13T08:24:09;26.08;;;19.25;;
11504;SDS011;5809;53.262;10.408;2023-10-13T08:26:40;24.50;;;18.45;;
11504;SDS011;5809;53.262;10.408;2023-10-13T08:29:25;25.58;;;18.50;;
11504;SDS011;5809;53.262;10.408;2023-10-13T08:32:09;21.50;;;17.15;;
11504;SDS011;5809;53.262;10.408;2023-10-13T08:34:49;17.27;;;13.88;;
11504;SDS011;5809;53.262;10.408;2023-10-13T08:37:33;19.85;;;14.65;;
11504;SDS011;5809;53.262;10.408;2023-10-13T08:40:14;18.00;;;13.27;;
11504;SDS011;5809;53.262;10.408;2023-10-13T08:43:06;12.93;;;10.75;;
11504;SDS011;5809;53.262;10.408;2023-10-13T08:45:37;12.43;;;11.13;;
11504;SDS011;5809;53.262;10.408;2023-10-13T08:48:19;13.32;;;10.88;;
11504;SDS011;5809;53.262;10.408;2023-10-13T08:50:51;13.82;;;11.05;;
11504;SDS011;5809;53.262;10.408;2023-10-13T08:53:21;12.35;;;9.80;;
11504;SDS011;5809;53.262;10.408;2023-10-13T08:55:59;14.27;;;9.50;;
11504;SDS011;5809;53.262;10.408;2023-10-13T08:58:30;11.88;;;9.73;;
11504;SDS011;5809;53.262;10.408;2023-10-13T09:01:11;17.73;;;9.70;;
11504;SDS011;5809;53.262;10.408;2023-10-13T09:03:39;11.77;;;9.35;;
11504;SDS011;5809;53.262;10.408;2023-10-13T09:06:07;12.02;;;8.63;;
11504;SDS011;5809;53.262;10.408;2023-10-13T09:08:44;10.50;;;9.00;;
11504;SDS011;5809;53.262;10.408;2023-10-13T09:11:32;12.07;;;9.15;;
11504;SDS011;5809;53.262;10.408;2023-10-13T09:14:14;10.20;;;8.02;;
11504;SDS011;5809;53.262;10.408;2023-10-13T09:17:00;10.82;;;8.20;;
11504;SDS011;5809;53.262;10.408;2023-10-13T09:19:33;8.98;;;7.70;;
11504;SDS011;5809;53.262;10.408;2023-10-13T09:22:19;11.98;;;8.52;;
11504;SDS011;5809;53.262;10.408;2023-10-13T09:24:51;9.85;;;8.07;;
11504;SDS011;5809;53.262;10.408;2023-10-13T09:27:24;9.25;;;7.85;;
11504;SDS011;5809;53.262;10.408;2023-10-13T09:29:55;9.50;;;7.43;;
11504;SDS011;5809;53.262;10.408;2023-10-13T09:32:23;7.68;;;6.85;;
11504;SDS011;5809;53.262;10.408;2023-10-13T09:34:49;7.32;;;6.60;;
11504;SDS011;5809;53.262;10.408;2023-10-13T09:37:17;9.75;;;6.70;;
11504;SDS011;5809;53.262;10.408;2023-10-13T09:39:46;7.30;;;6.47;;
11504;SDS011;5809;53.262;10.408;2023-10-13T09:42:17;9.57;;;6.75;;
11504;SDS011;5809;53.262;10.408;2023-10-13T09:44:45;8.25;;;6.57;;
11504;SDS011;5809;53.262;10.408;2023-10-13T09:47:21;9.40;;;6.38;;
11504;SDS011;5809;53.262;10.408;2023-10-13T09:49:56;8.32;;;5.80;;
11504;SDS011;5809;53.262;10.408;2023-10-13T09:52:29;10.45;;;6.90;;
11504;SDS011;5809;53.262;10.408;2023-10-13T09:55:03;7.10;;;6.13;;
11504;SDS011;5809;53.262;10.408;2023-10-13T09:57:37;11.77;;;6.93;;
11504;SDS011;5809;53.262;10.408;2023-10-13T10:00:11;7.47;;;6.18;;
11504;SDS011;5809;53.262;10.408;2023-10-13T10:02:59;9.07;;;6.68;;
11504;SDS011;5809;53.262;10.408;2023-10-13T10:05:29;9.60;;;6.82;;
11504;SDS011;5809;53.262;10.408;2023-10-13T10:07:59;9.07;;;7.18;;
11504;SDS011;5809;53.262;10.408;2023-10-13T10:10:29;10.68;;;6.53;;
11504;SDS011;5809;53.262;10.408;2023-10-13T10:13:12;10.48;;;6.85;;
11504;SDS011;5809;53.262;10.408;2023-10-13T10:15:47;8.52;;;7.18;;
11504;SDS011;5809;53.262;10.408;2023-10-13T10:18:20;10.13;;;7.07;;
11504;SDS011;5809;53.262;10.408;2023-10-13T10:20:48;10.57;;;7.68;;
11504;SDS011;5809;53.262;10.408;2023-10-13T10:23:23;12.77;;;7.63;;
11504;SDS011;5809;53.262;10.408;2023-10-13T10:25:52;11.73;;;7.15;;
11504;SDS011;5809;53.262;10.408;2023-10-13T10:28:34;11.60;;;7.80;;
11504;SDS011;5809;53.262;10.408;2023-10-13T10:31:05;11.05;;;7.63;;
11504;SDS011;5809;53.262;10.408;2023-10-13T10:33:34;11.40;;;7.97;;
11504;SDS011;5809;53.262;10.408;2023-10-13T10:36:02;10.73;;;7.80;;
11504;SDS011;5809;53.262;10.408;2023-10-13T10:38:30;15.55;;;8.40;;
11504;SDS011;5809;53.262;10.408;2023-10-13T10:41:04;10.88;;;8.30;;
11504;SDS011;5809;53.262;10.408;2023-10-13T10:43:36;8.70;;;7.03;;
11504;SDS011;5809;53.262;10.408;2023-10-13T10:46:10;10.38;;;6.82;;
11504;SDS011;5809;53.262;10.408;2023-10-13T10:48:38;12.18;;;6.47;;
11504;SDS011;5809;53.262;10.408;2023-10-13T10:51:08;10.10;;;6.30;;
11504;SDS011;5809;53.262;10.408;2023-10-13T10:53:43;10.88;;;6.13;;
11504;SDS011;5809;53.262;10.408;2023-10-13T10:56:10;8.35;;;6.20;;
11504;SDS011;5809;53.262;10.408;2023-10-13T10:58:48;9.38;;;6.03;;
11504;SDS011;5809;53.262;10.408;2023-10-13T11:01:21;10.43;;;5.85;;
11504;SDS011;5809;53.262;10.408;2023-10-13T11:03:55;7.68;;;5.03;;
11504;SDS011;5809;53.262;10.408;2023-10-13T11:06:24;8.10;;;4.40;;
11504;SDS011;5809;53.262;10.408;2023-10-13T11:09:01;6.72;;;4.35;;
11504;SDS011;5809;53.262;10.408;2023-10-13T11:11:32;11.40;;;4.70;;
11504;SDS011;5809;53.262;10.408;2023-10-13T11:14:00;9.75;;;4.68;;
11504;SDS011;5809;53.262;10.408;2023-10-13T11:16:47;8.00;;;4.25;;
11504;SDS011;5809;53.262;10.408;2023-10-13T11:19:18;8.27;;;4.97;;
11504;SDS011;5809;53.262;10.408;2023-10-13T11:21:50;9.38;;;4.32;;
11504;SDS011;5809;53.262;10.408;2023-10-13T11:24:20;7.40;;;4.30;;
11504;SDS011;5809;53.262;10.408;2023-10-13T11:26:48;8.88;;;3.90;;
11504;SDS011;5809;53.262;10.408;2023-10-13T11:29:15;8.65;;;4.50;;
11504;SDS011;5809;53.262;10.408;2023-10-13T11:31:45;6.93;;;4.20;;
11504;SDS011;5809;53.262;10.408;2023-10-13T11:34:19;8.93;;;4.35;;
11504;SDS011;5809;53.262;10.408;2023-10-13T11:36:46;6.45;;;3.65;;
11504;SDS011;5809;53.262;10.408;2023-10-13T11:39:13;6.80;;;3.38;;
11504;SDS011;5809;53.262;10.408;2023-10-13T11:41:44;6.75;;;3.88;;
11504;SDS011;5809;53.262;10.408;2023-10-13T11:44:19;8.98;;;3.60;;
11504;SDS011;5809;53.262;10.408;2023-10-13T11:46:58;8.30;;;3.85;;
11504;SDS011;5809;53.262;10.408;2023-10-13T11:49:53;8.10;;;3.92;;
11504;SDS011;5809;53.262;10.408;2023-10-13T11:52:23;9.57;;;4.18;;
11504;SDS011;5809;53.262;10.408;2023-10-13T11:54:52;9.48;;;3.72;;
11504;SDS011;5809;53.262;10.408;2023-10-13T11:57:18;11.48;;;4.38;;
11504;SDS011;5809;53.262;10.408;2023-10-13T11:59:46;11.57;;;3.70;;
11504;SDS011;5809;53.262;10.408;2023-10-13T12:02:22;5.60;;;3.50;;
11504;SDS011;5809;53.262;10.408;2023-10-13T12:05:06;8.07;;;3.50;;
11504;SDS011;5809;53.262;10.408;2023-10-13T12:07:42;11.38;;;3.67;;
11504;SDS011;5809;53.262;10.408;2023-10-13T12:10:13;9.88;;;4.25;;
11504;SDS011;5809;53.262;10.408;2023-10-13T12:12:57;9.05;;;3.95;;
11504;SDS011;5809;53.262;10.408;2023-10-13T12:15:30;8.82;;;4.15;;
11504;SDS011;5809;53.262;10.408;2023-10-13T12:18:03;20.63;;;4.90;;
11504;SDS011;5809;53.262;10.408;2023-10-13T12:20:31;8.80;;;4.28;;
11504;SDS011;5809;53.262;10.408;2023-10-13T12:23:01;6.90;;;3.95;;
11504;SDS011;5809;53.262;10.408;2023-10-13T12:25:40;9.02;;;3.47;;
11504;SDS011;5809;53.262;10.408;2023-10-13T12:28:24;7.38;;;3.53;;
11504;SDS011;5809;53.262;10.408;2023-10-13T12:30:54;6.97;;;3.47;;
11504;SDS011;5809;53.262;10.408;2023-10-13T12:33:24;11.73;;;4.05;;
11504;SDS011;5809;53.262;10.408;2023-10-13T12:35:55;10.63;;;4.10;;
11504;SDS011;5809;53.262;10.408;2023-10-13T12:38:40;8.15;;;3.72;;
11504;SDS011;5809;53.262;10.408;2023-10-13T12:41:25;9.82;;;3.90;;
11504;SDS011;5809;53.262;10.408;2023-10-13T12:44:09;9.30;;;4.03;;
11504;SDS011;5809;53.262;10.408;2023-10-13T12:46:53;11.32;;;4.18;;
11504;SDS011;5809;53.262;10.408;2023-10-13T12:49:38;9.20;;;3.63;;
11504;SDS011;5809;53.262;10.408;2023-10-13T12:52:17;8.45;;;3.83;;
11504;SDS011;5809;53.262;10.408;2023-10-13T12:54:45;7.75;;;3.90;;
11504;SDS011;5809;53.262;10.408;2023-10-13T12:57:19;9.70;;;4.15;;
11504;SDS011;5809;53.262;10.408;2023-10-13T12:59:48;8.05;;;4.53;;
11504;SDS011;5809;53.262;10.408;2023-10-13T13:02:18;12.77;;;5.05;;
11504;SDS011;5809;53.262;10.408;2023-10-13T13:04:47;11.05;;;4.45;;
11504;SDS011;5809;53.262;10.408;2023-10-13T13:07:19;10.02;;;4.43;;
11504;SDS011;5809;53.262;10.408;2023-10-13T13:09:46;11.73;;;3.95;;
11504;SDS011;5809;53.262;10.408;2023-10-13T13:12:13;8.52;;;4.57;;
11504;SDS011;5809;53.262;10.408;2023-10-13T13:14:41;11.07;;;4.50;;
11504;SDS011;5809;53.262;10.408;2023-10-13T13:17:11;12.52;;;4.72;;
11504;SDS011;5809;53.262;10.408;2023-10-13T13:19:38;13.80;;;4.90;;
11504;SDS011;5809;53.262;10.408;2023-10-13T13:22:06;14.45;;;4.72;;
11504;SDS011;5809;53.262;10.408;2023-10-13T13:24:37;10.80;;;4.05;;
11504;SDS011;5809;53.262;10.408;2023-10-13T13:27:08;11.73;;;5.00;;
11504;SDS011;5809;53.262;10.408;2023-10-13T13:29:38;10.80;;;4.60;;
11504;SDS011;5809;53.262;10.408;2023-10-13T13:32:06;10.35;;;4.72;;
11504;SDS011;5809;53.262;10.408;2023-10-13T13:34:42;9.55;;;4.85;;
11504;SDS011;5809;53.262;10.408;2023-10-13T13:37:10;12.02;;;4.47;;
11504;SDS011;5809;53.262;10.408;2023-10-13T13:39:38;16.05;;;4.38;;
11504;SDS011;5809;53.262;10.408;2023-10-13T13:42:10;9.52;;;4.53;;
11504;SDS011;5809;53.262;10.408;2023-10-13T13:44:42;8.23;;;4.63;;
11504;SDS011;5809;53.262;10.408;2023-10-13T13:47:11;13.40;;;4.53;;
11504;SDS011;5809;53.262;10.408;2023-10-13T13:49:38;9.25;;;4.43;;
11504;SDS011;5809;53.262;10.408;2023-10-13T13:52:06;8.77;;;4.90;;
11504;SDS011;5809;53.262;10.408;2023-10-13T13:54:34;9.18;;;4.72;;
11504;SDS011;5809;53.262;10.408;2023-10-13T13:57:05;15.65;;;5.30;;
11504;SDS011;5809;53.262;10.408;2023-10-13T13:59:32;12.80;;;4.90;;
11504;SDS011;5809;53.262;10.408;2023-10-13T14:02:01;12.10;;;4.85;;
11504;SDS011;5809;53.262;10.408;2023-10-13T14:04:44;10.38;;;4.57;;
11504;SDS011;5809;53.262;10.408;2023-10-13T14:07:11;7.10;;;4.85;;
11504;SDS011;5809;53.262;10.408;2023-10-13T14:09:41;16.95;;;5.75;;
11504;SDS011;5809;53.262;10.408;2023-10-13T14:12:09;12.95;;;4.95;;
11504;SDS011;5809;53.262;10.408;2023-10-13T14:14:53;14.23;;;5.15;;
11504;SDS011;5809;53.262;10.408;2023-10-13T14:17:21;13.27;;;5.43;;
11504;SDS011;5809;53.262;10.408;2023-10-13T14:19:54;12.55;;;4.88;;
11504;SDS011;5809;53.262;10.408;2023-10-13T14:22:21;12.68;;;5.13;;
11504;SDS011;5809;53.262;10.408;2023-10-13T14:24:52;13.32;;;5.32;;
11504;SDS011;5809;53.262;10.408;2023-10-13T14:27:20;12.63;;;5.00;;
11504;SDS011;5809;53.262;10.408;2023-10-13T14:29:50;11.20;;;4.68;;
11504;SDS011;5809;53.262;10.408;2023-10-13T14:32:19;12.23;;;4.88;;
11504;SDS011;5809;53.262;10.408;2023-10-13T14:34:49;18.98;;;5.28;;
11504;SDS011;5809;53.262;10.408;2023-10-13T14:37:21;10.98;;;4.65;;
11504;SDS011;5809;53.262;10.408;2023-10-13T14:39:55;15.98;;;5.15;;
11504;SDS011;5809;53.262;10.408;2023-10-13T14:42:23;9.70;;;5.10;;
11504;SDS011;5809;53.262;10.408;2023-10-13T14:44:50;12.57;;;4.80;;
11504;SDS011;5809;53.262;10.408;2023-10-13T14:47:20;13.43;;;5.40;;
11504;SDS011;5809;53.262;10.408;2023-10-13T14:49:50;13.70;;;5.28;;
11504;SDS011;5809;53.262;10.408;2023-10-13T14:52:21;10.20;;;4.15;;
11504;SDS011;5809;53.262;10.408;2023-10-13T14:54:48;11.88;;;4.85;;
11504;SDS011;5809;53.262;10.408;2023-10-13T14:57:21;15.43;;;5.10;;
11504;SDS011;5809;53.262;10.408;2023-10-13T14:59:49;16.88;;;4.78;;
11504;SDS011;5809;53.262;10.408;2023-10-13T15:02:17;16.77;;;4.97;;
11504;SDS011;5809;53.262;10.408;2023-10-13T15:04:44;13.40;;;5.18;;
11504;SDS011;5809;53.262;10.408;2023-10-13T15:07:13;11.93;;;5.22;;
11504;SDS011;5809;53.262;10.408;2023-10-13T15:09:41;14.10;;;5.80;;